Terminal Aerodrome Forecast
Issued by NWS Binghamton, NY

Home | Current Version | Previous Version | Text Only | Print | Product List | Glossary On
Versions: 1 2 3 4 5 6 7 8 9 10 11 12 13 14
000
FTUS41 KBGM 220533
TAFBGM
TAF
KBGM 220533Z 2206/2306 13005KT P6SM OVC040
     FM221300 19008KT P6SM OVC050
     FM230100 VRB03KT P6SM BKN025
      AMD NOT SKED=

USA.gov is the U.S. government's official web portal to all federal, state and local government web resources and services.